Time;durP1;ratioP1;P1;durP2;ratioP2;P2;SDS_P1;SDS_P2;PMS_P1;PMS_P2;Temp;Humidity;BMP_temperature;BMP_pressure;BME280_temperature;BME280_humidity;BME280_pressure;Samples;Min_cycle;Max_cycle;Signal;HPM_P1;HPM_P2
2021/06/22 00:01:14;;;;;;;14.02;5.95;;;13.50;99.90;;;;;;5118172;27;20042;-83
2021/06/22 00:03:39;;;;;;;10.00;5.10;;;13.50;99.90;;;;;;5137106;27;20486;-83
2021/06/22 00:06:06;;;;;;;12.30;4.68;;;13.50;99.90;;;;;;5119676;27;20088;-82
2021/06/22 00:08:32;;;;;;;14.20;5.22;;;13.50;99.90;;;;;;5114908;27;20032;-82
2021/06/22 00:10:57;;;;;;;13.40;5.20;;;13.40;99.90;;;;;;5136100;27;20118;-82
2021/06/22 00:13:23;;;;;;;13.60;4.45;;;13.40;99.90;;;;;;5123158;27;20039;-83
2021/06/22 00:15:49;;;;;;;12.25;4.20;;;13.40;99.90;;;;;;5119283;27;20039;-84
2021/06/22 00:18:15;;;;;;;10.35;3.60;;;13.50;99.90;;;;;;5120182;27;20035;-83
2021/06/22 00:20:41;;;;;;;11.45;3.25;;;13.50;99.90;;;;;;5102637;27;20035;-83
2021/06/22 00:23:07;;;;;;;12.60;3.40;;;13.40;99.90;;;;;;5118290;27;20531;-83
2021/06/22 00:25:33;;;;;;;16.42;4.18;;;13.50;99.90;;;;;;5137421;27;20031;-83
2021/06/22 00:27:59;;;;;;;12.43;4.40;;;13.50;99.90;;;;;;5117082;27;20099;-82
2021/06/22 00:30:25;;;;;;;15.60;5.43;;;13.50;99.90;;;;;;5133470;27;20031;-82
2021/06/22 00:32:52;;;;;;;17.77;6.95;;;13.40;99.90;;;;;;5138226;27;20047;-82
2021/06/22 00:35:18;;;;;;;20.48;7.25;;;13.50;99.90;;;;;;5134411;27;20118;-83
2021/06/22 00:37:44;;;;;;;14.77;8.15;;;13.50;99.90;;;;;;5135244;27;20046;-83
2021/06/22 00:40:12;;;;;;;14.00;9.35;;;13.50;99.90;;;;;;5137748;27;20039;-83
2021/06/22 00:42:43;;;;;;;17.88;10.90;;;13.50;99.90;;;;;;5119247;27;20038;-83
2021/06/22 00:45:11;;;;;;;19.10;11.30;;;13.50;99.90;;;;;;5138011;27;20039;-82
2021/06/22 00:47:37;;;;;;;19.92;11.88;;;13.50;99.90;;;;;;5105199;27;20055;-82
2021/06/22 00:50:04;;;;;;;23.20;12.57;;;13.60;99.90;;;;;;5123381;27;20483;-82
2021/06/22 00:52:30;;;;;;;20.52;13.63;;;13.60;99.90;;;;;;5089922;27;20123;-82
2021/06/22 00:54:57;;;;;;;17.50;13.93;;;13.60;99.90;;;;;;5106774;27;20054;-82
2021/06/22 00:57:23;;;;;;;21.70;14.43;;;13.60;99.90;;;;;;5108958;27;20034;-82
2021/06/22 00:59:50;;;;;;;23.00;14.75;;;13.60;99.90;;;;;;5106683;27;20031;-82
2021/06/22 01:02:17;;;;;;;20.65;14.23;;;13.60;99.90;;;;;;5122751;27;20035;-83
2021/06/22 01:04:43;;;;;;;26.13;16.17;;;13.60;99.90;;;;;;5126012;27;20035;-82
2021/06/22 01:07:15;;;;;;;27.10;15.70;;;13.60;99.90;;;;;;5124622;27;20479;-82
2021/06/22 01:09:41;;;;;;;;;;;13.60;99.90;;;;;;5120668;27;20061;-82
2021/06/22 01:12:07;;;;;;;23.77;15.10;;;13.60;99.90;;;;;;5106650;27;20289;-82
2021/06/22 01:14:33;;;;;;;21.58;15.05;;;13.60;99.90;;;;;;5121322;27;20076;-83
2021/06/22 01:16:59;;;;;;;24.85;16.63;;;13.60;99.90;;;;;;5102012;27;20040;-82
2021/06/22 01:19:25;;;;;;;23.15;15.80;;;13.70;99.90;;;;;;5120747;27;20056;-82
2021/06/22 01:21:51;;;;;;;21.48;15.18;;;13.70;99.90;;;;;;5091981;27;20055;-82
2021/06/22 01:24:19;;;;;;;26.65;14.80;;;13.70;99.90;;;;;;5086571;27;20040;-83
2021/06/22 01:26:52;;;;;;;22.02;16.13;;;13.70;99.90;;;;;;5099075;27;20054;-83
2021/06/22 01:29:17;;;;;;;;;;;13.70;99.90;;;;;;5123825;27;20528;-82
2021/06/22 01:31:44;;;;;;;20.90;14.63;;;13.70;99.90;;;;;;5117401;27;19920;-83
2021/06/22 01:34:11;;;;;;;24.40;15.60;;;13.70;99.90;;;;;;5125024;27;20165;-83
2021/06/22 01:36:39;;;;;;;23.42;14.80;;;13.70;99.90;;;;;;5101932;27;20146;-82
2021/06/22 01:39:10;;;;;;;23.67;14.75;;;13.70;99.90;;;;;;5110235;27;20035;-82
2021/06/22 01:41:35;;;;;;;24.35;14.98;;;13.70;99.90;;;;;;5119733;27;20035;-82
2021/06/22 01:44:01;;;;;;;23.27;15.15;;;13.70;99.90;;;;;;5091328;27;20035;-82
2021/06/22 01:46:30;;;;;;;19.83;15.07;;;13.70;99.90;;;;;;5095151;27;20138;-83
2021/06/22 01:48:56;;;;;;;21.10;13.85;;;13.70;99.90;;;;;;5123624;27;20071;-83
2021/06/22 01:51:22;;;;;;;19.50;14.02;;;13.70;99.90;;;;;;5139884;27;20394;-82
2021/06/22 01:53:57;;;;;;;19.13;13.85;;;13.70;99.90;;;;;;5140254;27;20034;-83
2021/06/22 01:56:25;;;;;;;22.10;13.48;;;13.70;99.90;;;;;;5125822;27;20046;-82
2021/06/22 01:58:52;;;;;;;18.20;13.05;;;13.70;99.90;;;;;;5136834;27;20035;-82
2021/06/22 02:01:18;;;;;;;24.02;13.85;;;13.70;99.90;;;;;;5139432;27;20378;-82
2021/06/22 02:03:45;;;;;;;21.17;14.45;;;13.70;99.90;;;;;;5124897;27;20037;-82
2021/06/22 02:06:12;;;;;;;25.17;13.30;;;13.70;99.90;;;;;;5132736;27;20037;-82
2021/06/22 02:08:38;;;;;;;23.35;13.05;;;13.60;99.90;;;;;;5143418;27;20035;-82
2021/06/22 02:11:04;;;;;;;20.73;13.40;;;13.60;99.90;;;;;;5135644;27;20046;-82
2021/06/22 02:13:30;;;;;;;22.25;13.57;;;13.60;99.90;;;;;;5126947;27;20118;-82
2021/06/22 02:15:56;;;;;;;22.05;13.05;;;13.50;99.90;;;;;;5137535;27;20479;-82
2021/06/22 02:18:22;;;;;;;18.73;12.90;;;13.50;99.90;;;;;;5147351;27;20187;-82
2021/06/22 02:20:48;;;;;;;23.27;12.43;;;13.40;99.90;;;;;;5138709;27;20560;-82
2021/06/22 02:23:14;;;;;;;20.50;11.73;;;13.40;99.90;;;;;;5118823;27;20952;-82
2021/06/22 02:25:40;;;;;;;20.98;13.05;;;13.40;99.90;;;;;;5122685;27;20073;-82
2021/06/22 02:28:08;;;;;;;17.50;11.93;;;13.30;99.90;;;;;;5145953;27;20103;-82
2021/06/22 02:30:36;;;;;;;27.50;12.85;;;13.30;99.90;;;;;;5156987;27;20039;-82
2021/06/22 02:33:02;;;;;;;23.60;12.52;;;13.30;99.90;;;;;;5129503;27;20442;-82
2021/06/22 02:35:29;;;;;;;20.70;12.38;;;13.20;99.90;;;;;;5121850;27;20045;-82
2021/06/22 02:37:56;;;;;;;24.95;12.82;;;13.20;99.90;;;;;;5100852;27;20477;-82
2021/06/22 02:40:24;;;;;;;17.55;12.52;;;13.20;99.90;;;;;;5124802;27;20026;-82
2021/06/22 02:42:50;;;;;;;24.63;12.60;;;13.10;99.90;;;;;;5144799;27;20034;-82
2021/06/22 02:45:17;;;;;;;21.65;12.27;;;13.10;99.90;;;;;;5147721;27;20045;-82
2021/06/22 02:47:45;;;;;;;24.55;13.02;;;13.00;99.90;;;;;;5127805;27;20076;-82
2021/06/22 02:50:12;;;;;;;24.92;12.30;;;12.90;99.90;;;;;;5148025;27;20111;-82
2021/06/22 02:52:38;;;;;;;21.67;13.60;;;12.80;99.90;;;;;;5135940;27;20038;-82
2021/06/22 02:55:05;;;;;;;25.67;12.88;;;12.80;99.90;;;;;;5112186;27;20043;-82
2021/06/22 02:57:31;;;;;;;20.23;12.52;;;12.80;99.90;;;;;;5119610;27;20039;-82
2021/06/22 02:59:57;;;;;;;21.58;12.35;;;12.80;99.90;;;;;;5148606;27;20083;-82
2021/06/22 03:02:23;;;;;;;20.08;11.85;;;12.80;99.90;;;;;;5149207;27;20424;-82
2021/06/22 03:04:49;;;;;;;22.35;13.50;;;12.80;99.90;;;;;;5114713;27;20045;-82
2021/06/22 03:07:16;;;;;;;22.05;12.20;;;12.80;99.90;;;;;;5119195;27;20443;-82
2021/06/22 03:09:42;;;;;;;18.50;12.48;;;12.80;99.90;;;;;;5148831;27;20035;-82
2021/06/22 03:12:09;;;;;;;22.63;11.63;;;12.70;99.90;;;;;;5096408;28;20035;-82
2021/06/22 03:14:35;;;;;;;21.98;12.02;;;12.70;99.90;;;;;;5127804;27;20066;-82
2021/06/22 03:17:00;;;;;;;18.42;12.07;;;12.60;99.90;;;;;;5130697;27;20762;-83
2021/06/22 03:19:26;;;;;;;20.52;12.52;;;12.50;99.90;;;;;;5115273;27;20035;-82
2021/06/22 03:21:53;;;;;;;17.92;12.80;;;12.50;99.90;;;;;;5110068;27;20034;-83
2021/06/22 03:24:20;;;;;;;21.58;12.57;;;12.50;99.90;;;;;;5114790;27;20084;-82
2021/06/22 03:26:47;;;;;;;20.85;12.10;;;12.50;99.90;;;;;;5141108;27;20062;-82
2021/06/22 03:29:14;;;;;;;27.70;12.40;;;12.50;99.90;;;;;;5139072;27;20076;-82
2021/06/22 03:31:40;;;;;;;24.50;12.20;;;12.50;99.90;;;;;;5142337;27;20501;-82
2021/06/22 03:34:06;;;;;;;27.60;14.00;;;12.50;99.90;;;;;;5131086;27;20272;-82
2021/06/22 03:36:33;;;;;;;23.88;12.73;;;12.50;99.90;;;;;;5116402;27;20606;-82
2021/06/22 03:38:59;;;;;;;22.08;12.32;;;12.50;99.90;;;;;;5130403;27;20488;-82
2021/06/22 03:41:25;;;;;;;23.27;13.27;;;12.50;99.90;;;;;;5122041;27;20035;-82
2021/06/22 03:43:51;;;;;;;17.90;12.05;;;12.40;99.90;;;;;;5125724;27;20039;-82
2021/06/22 03:46:18;;;;;;;21.65;13.10;;;12.40;99.90;;;;;;5132259;27;20058;-82
2021/06/22 03:48:45;;;;;;;20.77;12.32;;;12.40;99.90;;;;;;5079892;27;20043;-82
2021/06/22 03:51:11;;;;;;;18.88;12.63;;;12.30;99.90;;;;;;5135298;27;20774;-82
2021/06/22 03:53:38;;;;;;;25.00;12.82;;;12.30;99.90;;;;;;5130652;27;20035;-82
2021/06/22 03:56:07;;;;;;;24.00;13.73;;;12.20;99.90;;;;;;5122270;27;20702;-82
2021/06/22 03:58:34;;;;;;;25.50;13.55;;;12.20;99.90;;;;;;5133691;27;20047;-83
2021/06/22 04:01:00;;;;;;;16.50;11.77;;;12.20;99.90;;;;;;5147100;27;20118;-82
2021/06/22 04:03:26;;;;;;;25.25;13.90;;;12.20;99.90;;;;;;5143058;27;20039;-82
2021/06/22 04:05:52;;;;;;;22.95;13.23;;;12.10;99.90;;;;;;5097185;27;20042;-82
2021/06/22 04:08:18;;;;;;;18.02;12.95;;;12.10;99.90;;;;;;5120594;27;20034;-82
2021/06/22 04:10:44;;;;;;;21.35;13.40;;;12.10;99.90;;;;;;5134675;27;20501;-82
2021/06/22 04:13:10;;;;;;;19.98;12.77;;;12.10;99.90;;;;;;5148374;27;20525;-82
2021/06/22 04:15:36;;;;;;;24.88;13.88;;;12.10;99.90;;;;;;5117647;27;20054;-84
2021/06/22 04:18:08;;;;;;;23.42;12.63;;;12.00;99.90;;;;;;5147468;27;20064;-82
2021/06/22 04:20:34;;;;;;;;;;;12.00;99.90;;;;;;5131861;27;20050;-83
2021/06/22 04:23:00;;;;;;;;;;;12.00;99.90;;;;;;5120481;27;19930;-82
2021/06/22 04:25:26;;;;;;;;;;;12.00;99.90;;;;;;5130900;27;19919;-82
2021/06/22 04:27:52;;;;;;;;;;;12.00;99.90;;;;;;5125278;27;19919;-82
2021/06/22 04:30:18;;;;;;;;;;;12.00;99.90;;;;;;5133945;27;20344;-82
2021/06/22 04:32:44;;;;;;;;;;;12.10;99.90;;;;;;5150888;27;19922;-82
2021/06/22 04:35:10;;;;;;;;;;;12.10;99.90;;;;;;5115479;27;19915;-82
2021/06/22 04:37:38;;;;;;;;;;;12.10;99.90;;;;;;5113145;27;20375;-82
2021/06/22 04:40:04;;;;;;;;;;;12.10;99.90;;;;;;5146678;27;20275;-82
2021/06/22 04:42:30;;;;;;;;;;;12.10;99.90;;;;;;5120723;27;19919;-83
2021/06/22 04:44:55;;;;;;;;;;;12.10;99.90;;;;;;5116525;27;20421;-82
2021/06/22 04:47:21;;;;;;;;;;;12.20;99.90;;;;;;5112864;27;19915;-83
2021/06/22 04:49:47;;;;;;;;;;;12.10;99.90;;;;;;5141951;27;20350;-82
2021/06/22 04:52:12;;;;;;;;;;;12.20;99.90;;;;;;5131195;27;19969;-82
2021/06/22 04:54:40;;;;;;;;;;;12.20;99.90;;;;;;5115064;27;19930;-81
2021/06/22 04:57:06;;;;;;;;;;;12.20;99.90;;;;;;5147154;27;20009;-82
2021/06/22 04:59:36;;;;;;;;;;;12.30;99.90;;;;;;5122843;27;20014;-82
2021/06/22 05:02:02;;;;;;;;;;;12.30;99.90;;;;;;5127541;27;19946;-82
2021/06/22 05:04:28;;;;;;;;;;;12.30;99.90;;;;;;5131380;27;19919;-82
2021/06/22 05:06:54;;;;;;;;;;;12.30;99.90;;;;;;5113328;27;20009;-82
2021/06/22 05:09:19;;;;;;;;;;;12.30;99.90;;;;;;5135376;27;20335;-81
2021/06/22 05:11:45;;;;;;;;;;;12.30;99.90;;;;;;5151227;27;20221;-82
2021/06/22 05:14:11;;;;;;;;;;;12.40;99.90;;;;;;5149208;27;19915;-82
2021/06/22 05:16:36;;;;;;;;;;;12.40;99.90;;;;;;5133209;27;19967;-81
2021/06/22 05:19:02;;;;;;;;;;;12.40;99.90;;;;;;5128457;27;19998;-82
2021/06/22 05:21:28;;;;;;;;;;;12.40;99.90;;;;;;5137353;27;20267;-82
2021/06/22 05:23:54;;;;;;;;;;;12.50;99.90;;;;;;5165066;27;19918;-81
2021/06/22 05:26:20;;;;;;;;;;;12.60;99.90;;;;;;5113471;27;19923;-82
2021/06/22 05:28:46;;;;;;;;;;;12.60;99.90;;;;;;5128777;27;19996;-82
2021/06/22 05:31:12;;;;;;;;;;;12.70;99.90;;;;;;5150805;27;19922;-82
2021/06/22 05:33:37;;;;;;;;;;;12.70;99.90;;;;;;5132697;27;19933;-82
2021/06/22 05:36:03;;;;;;;;;;;12.80;99.90;;;;;;5122379;27;19914;-82
2021/06/22 05:38:29;;;;;;;;;;;12.80;99.90;;;;;;5137533;27;19929;-82
2021/06/22 05:40:55;;;;;;;;;;;12.80;99.90;;;;;;5139716;27;20002;-82
2021/06/22 05:43:21;;;;;;;;;;;12.80;99.90;;;;;;5137911;27;19920;-82
2021/06/22 05:45:46;;;;;;;;;;;12.90;99.90;;;;;;5121954;27;19918;-82
2021/06/22 05:48:12;;;;;;;;;;;12.90;99.90;;;;;;5144883;27;20395;-82
2021/06/22 05:50:38;;;;;;;;;;;13.00;99.90;;;;;;5143884;27;19922;-82
2021/06/22 05:53:04;;;;;;;;;;;13.00;99.90;;;;;;5147483;27;19934;-82
2021/06/22 05:55:29;;;;;;;;;;;13.00;99.90;;;;;;5146500;27;19923;-82
2021/06/22 05:57:59;;;;;;;;;;;13.10;99.90;;;;;;5117584;27;20017;-82
2021/06/22 06:00:26;;;;;;;;;;;13.20;99.90;;;;;;5163833;27;20350;-82
2021/06/22 06:02:52;;;;;;;;;;;13.20;99.90;;;;;;5146003;27;19921;-81
2021/06/22 06:05:18;;;;;;;;;;;13.20;99.90;;;;;;5149008;27;20000;-82
2021/06/22 06:07:44;;;;;;;;;;;13.30;99.90;;;;;;5141223;27;20366;-81
2021/06/22 06:10:10;;;;;;;;;;;13.30;99.90;;;;;;5130921;27;19968;-82
2021/06/22 06:12:36;;;;;;;;;;;13.30;99.90;;;;;;5131194;27;20337;-82
2021/06/22 06:15:02;;;;;;;;;;;13.30;99.90;;;;;;5144287;27;19953;-82
2021/06/22 06:17:28;;;;;;;;;;;13.40;99.90;;;;;;5130204;27;19923;-82
2021/06/22 06:19:54;;;;;;;;;;;13.40;99.90;;;;;;5148981;27;19915;-82
2021/06/22 06:22:20;;;;;;;;;;;13.40;99.90;;;;;;5152376;27;19929;-82
2021/06/22 06:24:46;;;;;;;;;;;13.40;99.90;;;;;;5113976;27;19918;-82
2021/06/22 06:27:15;;;;;;;;;;;13.40;99.90;;;;;;5127196;27;19918;-82
2021/06/22 06:32:10;;;;;;;;;;;13.50;99.90;;;;;;5148776;27;20346;-82
2021/06/22 06:34:35;;;;;;;;;;;13.50;99.90;;;;;;5147467;27;19918;-82
2021/06/22 06:37:01;;;;;;;;;;;13.60;99.90;;;;;;5126254;27;19926;-82
2021/06/22 06:39:27;;;;;;;;;;;13.60;99.90;;;;;;5147933;27;19957;-82
2021/06/22 06:41:53;;;;;;;;;;;13.60;99.90;;;;;;5147052;27;19950;-82
2021/06/22 06:44:19;;;;;;;;;;;13.60;99.90;;;;;;5123088;27;19930;-82
2021/06/22 06:46:45;;;;;;;;;;;13.60;99.90;;;;;;5161877;27;20461;-82
2021/06/22 06:49:10;;;;;;;;;;;13.60;99.90;;;;;;5150720;27;19925;-81
2021/06/22 06:51:36;;;;;;;;;;;13.60;99.90;;;;;;5133834;27;20488;-82
2021/06/22 06:54:02;;;;;;;;;;;13.70;99.90;;;;;;5135285;27;19939;-82
2021/06/22 06:56:27;;;;;;;;;;;13.60;99.90;;;;;;5116461;27;19914;-82
2021/06/22 06:58:53;;;;;;;;;;;13.60;99.90;;;;;;5169846;27;19915;-82
2021/06/22 07:01:19;;;;;;;;;;;13.70;99.90;;;;;;5116105;27;19923;-82
2021/06/22 07:03:45;;;;;;;;;;;13.80;99.90;;;;;;5133240;27;19930;-83
2021/06/22 07:06:11;;;;;;;;;;;13.90;99.90;;;;;;5161561;27;20364;-82
2021/06/22 07:08:37;;;;;;;;;;;13.90;99.90;;;;;;5143424;27;19919;-82
2021/06/22 07:11:05;;;;;;;;;;;13.90;99.90;;;;;;5126378;27;19922;-82
2021/06/22 07:13:31;;;;;;;;;;;14.00;99.90;;;;;;5141930;27;19915;-82
2021/06/22 07:16:02;;;;;;;;;;;14.00;99.90;;;;;;5134969;27;20013;-84
2021/06/22 07:18:29;;;;;;;;;;;14.10;99.90;;;;;;5114956;27;19911;-82
2021/06/22 07:20:59;;;;;;;;;;;14.20;99.90;;;;;;5114109;27;20366;-83
2021/06/22 07:23:25;;;;;;;;;;;14.30;99.90;;;;;;5130991;27;19930;-82
2021/06/22 07:25:51;;;;;;;;;;;14.30;99.90;;;;;;5131979;27;19915;-83
2021/06/22 07:28:17;;;;;;;;;;;14.40;99.90;;;;;;5121903;27;20007;-83
2021/06/22 07:30:43;;;;;;;;;;;14.50;99.90;;;;;;5150384;27;20368;-83
2021/06/22 07:33:08;;;;;;;;;;;14.60;99.90;;;;;;5150826;27;19914;-83
2021/06/22 07:35:35;;;;;;;;;;;14.70;99.90;;;;;;5131739;27;20452;-82
2021/06/22 07:38:00;;;;;;;;;;;14.70;99.90;;;;;;5150194;27;19915;-83
2021/06/22 07:40:47;;;;;;;;;;;14.80;99.90;;;;;;5147256;27;19926;-83
2021/06/22 07:43:13;;;;;;;;;;;14.80;99.90;;;;;;5129597;27;19919;-83
2021/06/22 07:45:41;;;;;;;;;;;14.80;99.90;;;;;;5131568;27;19923;-83
2021/06/22 07:48:08;;;;;;;;;;;14.70;99.90;;;;;;5130896;27;19927;-83
2021/06/22 07:50:34;;;;;;;;;;;14.70;99.90;;;;;;5112569;27;20006;-83
2021/06/22 07:53:01;;;;;;;;;;;14.70;99.90;;;;;;5128258;27;20025;-82
2021/06/22 07:55:31;;;;;;;;;;;14.70;99.90;;;;;;5129883;27;20357;-83
2021/06/22 07:57:57;;;;;;;;;;;14.70;99.90;;;;;;5137408;27;20013;-83
2021/06/22 08:00:42;;;;;;;;;;;14.70;99.90;;;;;;5144794;27;19927;-83
2021/06/22 08:03:09;;;;;;;;;;;14.70;99.90;;;;;;5125185;27;19919;-83
2021/06/22 08:05:35;;;;;;;;;;;14.70;99.90;;;;;;5135315;27;20276;-83
2021/06/22 08:08:01;;;;;;;;;;;14.70;99.90;;;;;;5152896;27;19926;-83
2021/06/22 08:10:27;;;;;;;;;;;14.70;99.90;;;;;;5133617;27;20309;-83
2021/06/22 08:12:52;;;;;;;;;;;14.70;99.90;;;;;;5134200;27;19915;-82
2021/06/22 08:15:18;;;;;;;;;;;14.70;99.90;;;;;;5134288;27;19923;-83
2021/06/22 08:17:44;;;;;;;;;;;14.70;99.90;;;;;;5151323;27;19938;-83
2021/06/22 08:20:10;;;;;;;;;;;14.70;99.90;;;;;;5152409;27;19941;-83
2021/06/22 08:22:36;;;;;;;;;;;14.70;99.90;;;;;;5149259;27;19919;-83
2021/06/22 08:25:03;;;;;;;;;;;14.70;99.90;;;;;;5136134;27;19919;-83
2021/06/22 08:27:28;;;;;;;;;;;14.80;99.90;;;;;;5148505;27;19927;-83
2021/06/22 08:29:54;;;;;;;;;;;14.80;99.90;;;;;;5147156;27;19919;-82
2021/06/22 08:32:20;;;;;;;;;;;14.80;99.90;;;;;;5135460;27;19924;-82
2021/06/22 08:34:45;;;;;;;;;;;14.80;99.90;;;;;;5124259;27;20346;-83
2021/06/22 08:37:11;;;;;;;;;;;14.80;99.90;;;;;;5144123;27;19967;-83
2021/06/22 08:39:37;;;;;;;;;;;14.90;99.90;;;;;;5139649;27;19921;-83
2021/06/22 08:42:06;;;;;;;;;;;14.90;99.90;;;;;;5133800;27;19971;-83
2021/06/22 08:44:32;;;;;;;;;;;14.90;99.90;;;;;;5149990;27;19923;-83
2021/06/22 08:46:59;;;;;;;;;;;14.90;99.90;;;;;;5148086;27;19999;-83
2021/06/22 08:49:26;;;;;;;;;;;15.00;99.90;;;;;;5132872;27;19919;-82
2021/06/22 08:51:51;;;;;;;;;;;15.00;99.90;;;;;;5149713;27;20014;-83
2021/06/22 08:54:17;;;;;;;;;;;15.10;99.90;;;;;;5132002;27;20001;-83
2021/06/22 08:56:43;;;;;;;;;;;15.10;99.90;;;;;;5148799;27;19918;-83
2021/06/22 08:59:09;;;;;;;;;;;15.20;99.90;;;;;;5144827;27;19919;-83
2021/06/22 09:01:35;;;;;;;;;;;15.30;99.90;;;;;;5131867;27;20368;-83
2021/06/22 09:04:00;;;;;;;;;;;15.30;99.90;;;;;;5132791;27;19992;-83
2021/06/22 09:06:26;;;;;;;;;;;15.40;99.90;;;;;;5131490;27;19923;-83
2021/06/22 09:08:53;;;;;;;;;;;15.40;99.90;;;;;;5148782;27;19918;-83
2021/06/22 09:11:19;;;;;;;;;;;15.50;99.90;;;;;;5148880;27;19918;-83
2021/06/22 09:13:55;;;;;;;;;;;15.40;99.90;;;;;;5150069;27;20448;-83
2021/06/22 09:16:21;;;;;;;;;;;15.50;99.90;;;;;;5142602;27;19959;-83
2021/06/22 09:18:46;;;;;;;;;;;15.60;99.90;;;;;;5148409;27;20335;-83
2021/06/22 09:21:14;;;;;;;;;;;15.60;99.90;;;;;;5106044;27;19925;-83
2021/06/22 09:27:02;;;;;;;;;;;15.70;99.90;;;;;;5129765;27;19918;-83
2021/06/22 09:29:28;;;;;;;;;;;15.70;99.90;;;;;;5146087;27;20369;-82
2021/06/22 09:31:55;;;;;;;;;;;15.70;99.90;;;;;;5133223;27;19954;-83
2021/06/22 09:34:22;;;;;;;;;;;15.70;99.90;;;;;;5132642;27;20266;-83
2021/06/22 09:36:49;;;;;;;;;;;15.80;99.90;;;;;;5149622;27;20409;-83
2021/06/22 09:39:15;;;;;;;;;;;15.80;99.90;;;;;;5137660;27;19951;-83
2021/06/22 09:41:42;;;;;;;;;;;15.90;99.90;;;;;;5135315;27;19918;-83
2021/06/22 09:44:08;;;;;;;;;;;16.00;99.90;;;;;;5118677;27;20396;-83
2021/06/22 09:46:36;;;;;;;;;;;16.10;99.90;;;;;;5128853;27;19923;-83
2021/06/22 09:49:03;;;;;;;;;;;16.10;99.90;;;;;;5128997;27;20021;-83
2021/06/22 09:51:37;;;;;;;;;;;16.00;99.90;;;;;;5112718;27;19970;-82
2021/06/22 09:54:22;;;;;;;;;;;16.00;99.90;;;;;;5130045;27;19924;-83
2021/06/22 09:56:57;;;;;;;;;;;16.00;99.90;;;;;;5146383;27;19919;-83
2021/06/22 09:59:23;;;;;;;;;;;16.00;99.90;;;;;;5145221;27;19919;-83
2021/06/22 10:01:52;;;;;;;;;;;16.00;99.90;;;;;;5145227;27;19915;-83
2021/06/22 10:04:21;;;;;;;;;;;16.00;99.90;;;;;;5147817;27;19922;-83
2021/06/22 10:06:48;;;;;;;;;;;16.00;99.90;;;;;;5146558;27;19918;-82
2021/06/22 10:09:34;;;;;;;;;;;16.00;99.90;;;;;;5148022;27;20000;-82
2021/06/22 10:15:22;;;;;;;;;;;15.90;99.90;;;;;;5127644;27;20518;-83
2021/06/22 10:17:48;;;;;;;;;;;16.00;99.90;;;;;;5126613;27;19915;-82
2021/06/22 10:20:14;;;;;;;;;;;16.00;99.90;;;;;;5125829;27;20301;-83
2021/06/22 10:22:41;;;;;;;;;;;16.10;99.90;;;;;;5146953;27;19919;-82
2021/06/22 10:25:09;;;;;;;;;;;16.30;99.90;;;;;;5105205;27;20275;-83
2021/06/22 10:27:34;;;;;;;;;;;16.40;99.90;;;;;;5139039;27;20374;-82
2021/06/22 10:30:02;;;;;;;;;;;16.40;99.90;;;;;;5147615;27;19946;-82
2021/06/22 10:32:28;;;;;;;;;;;16.50;99.90;;;;;;5145799;27;19926;-82
2021/06/22 10:34:55;;;;;;;;;;;16.60;99.90;;;;;;5148824;27;19935;-83
2021/06/22 10:37:34;;;;;;;;;;;16.60;99.90;;;;;;5147626;27;20370;-82
2021/06/22 10:40:21;;;;;;;;;;;16.60;99.90;;;;;;5130096;27;19930;-82
2021/06/22 10:42:51;;;;;;;;;;;16.60;99.90;;;;;;5128408;27;19918;-82
2021/06/22 10:45:17;;;;;;;;;;;16.60;99.90;;;;;;5130123;27;19923;-83
2021/06/22 10:47:44;;;;;;;;;;;16.60;99.90;;;;;;5127269;27;20286;-82
2021/06/22 10:50:11;;;;;;;;;;;16.50;99.90;;;;;;5145589;27;19922;-82
2021/06/22 10:52:43;;;;;;;;;;;16.60;99.90;;;;;;5148620;27;19944;-82
2021/06/22 10:55:31;;;;;;;;;;;16.60;99.90;;;;;;5150965;27;19915;-82
2021/06/22 10:57:57;;;;;;;;;;;16.70;99.90;;;;;;5134974;27;19919;-82
2021/06/22 11:00:26;;;;;;;;;;;16.60;99.90;;;;;;5149126;27;19918;-83
2021/06/22 11:02:58;;;;;;;;;;;16.60;99.90;;;;;;5149043;27;19922;-82
2021/06/22 11:05:24;;;;;;;;;;;16.60;99.90;;;;;;5149139;27;20047;-83
2021/06/22 11:08:08;;;;;;;;;;;16.70;99.90;;;;;;5149986;27;19923;-82
2021/06/22 11:10:34;;;;;;;;;;;16.70;99.90;;;;;;5148709;27;19919;-82
2021/06/22 11:12:59;;;;;;;;;;;16.70;99.90;;;;;;5128117;27;19922;-82
2021/06/22 11:15:45;;;;;;;;;;;16.70;99.90;;;;;;5148872;27;19965;-82
2021/06/22 11:18:15;;;;;;;;;;;16.70;99.90;;;;;;5133614;27;19973;-83
2021/06/22 11:20:42;;;;;;;;;;;16.70;99.90;;;;;;5143967;27;19915;-82
2021/06/22 11:23:09;;;;;;;;;;;16.80;99.90;;;;;;5126580;27;20365;-83
2021/06/22 11:25:49;;;;;;;;;;;16.80;99.90;;;;;;5142808;27;19947;-83
2021/06/22 11:28:15;;;;;;;;;;;16.80;99.90;;;;;;5143856;27;19919;-83
2021/06/22 11:30:58;;;;;;;;;;;16.80;99.90;;;;;;5136050;27;19925;-83
2021/06/22 11:33:38;;;;;;;;;;;16.80;99.90;;;;;;5131644;27;19926;-83
2021/06/22 11:36:20;;;;;;;;;;;16.80;99.90;;;;;;5160375;27;19967;-86
2021/06/22 11:39:18;;;;;;;;;;;16.80;99.90;;;;;;5129950;27;19961;-83
2021/06/22 11:42:03;;;;;;;;;;;16.80;99.90;;;;;;5105144;27;19915;-83
2021/06/22 11:44:29;;;;;;;;;;;16.80;99.90;;;;;;5135188;27;19919;-83
2021/06/22 11:46:57;;;;;;;;;;;16.80;99.90;;;;;;5149150;27;19929;-83
2021/06/22 11:49:36;;;;;;;;;;;16.80;99.90;;;;;;5123622;27;19919;-83
2021/06/22 11:52:02;;;;;;;;;;;16.80;99.90;;;;;;5172705;27;20378;-83
2021/06/22 11:54:46;;;;;;;;;;;16.70;99.90;;;;;;5166258;27;19919;-83
2021/06/22 11:57:22;;;;;;;;;;;16.80;99.90;;;;;;5136759;27;19922;-83
2021/06/22 11:59:48;;;;;;;;;;;16.70;99.90;;;;;;5148596;27;20308;-83
2021/06/22 12:02:15;;;;;;;;;;;16.70;99.90;;;;;;5127334;27;19925;-83
2021/06/22 12:04:41;;;;;;;;;;;16.70;99.90;;;;;;5153045;27;19922;-83
2021/06/22 12:07:08;;;;;;;;;;;16.80;99.90;;;;;;5139788;27;20301;-83
2021/06/22 12:09:34;;;;;;;;;;;16.70;99.90;;;;;;5166969;27;19922;-83
2021/06/22 12:12:00;;;;;;;;;;;16.80;99.90;;;;;;5134237;27;20301;-82
2021/06/22 12:14:25;;;;;;;;;;;16.80;99.90;;;;;;5129343;27;19923;-83
2021/06/22 12:16:51;;;;;;;;;;;16.80;99.90;;;;;;5126434;27;20378;-83
2021/06/22 12:19:18;;;;;;;;;;;16.80;99.90;;;;;;5125994;27;19918;-83
2021/06/22 12:21:48;;;;;;;;;;;16.90;99.90;;;;;;5164026;27;19914;-83
2021/06/22 12:24:15;;;;;;;;;;;16.90;99.90;;;;;;5139235;27;19919;-82
2021/06/22 12:26:42;;;;;;;;;;;17.00;99.90;;;;;;5142569;27;19933;-83
2021/06/22 12:29:15;;;;;;;;;;;17.00;99.90;;;;;;5114322;27;20009;-83
2021/06/22 12:31:48;;;;;;;;;;;17.00;99.90;;;;;;5163914;27;20297;-82
2021/06/22 12:34:13;;;;;;;;;;;17.00;99.90;;;;;;5149470;27;19918;-83
2021/06/22 12:37:16;;;;;;;;;;;17.00;99.90;;;;;;5149625;27;19921;-83
2021/06/22 12:39:43;;;;;;;;;;;17.00;99.90;;;;;;5161623;27;20005;-82
2021/06/22 12:42:10;;;;;;;;;;;17.10;99.90;;;;;;5148884;27;19962;-83
2021/06/22 12:44:36;;;;;;;;;;;17.10;99.90;;;;;;5154202;27;19934;-83
2021/06/22 12:47:03;;;;;;;;;;;17.20;99.90;;;;;;5150660;27;19922;-83
2021/06/22 12:52:51;;;;;;;;;;;17.50;99.90;;;;;;5167949;27;20337;-82
2021/06/22 12:55:35;;;;;;;;;;;17.60;99.90;;;;;;5148644;27;19919;-82
2021/06/22 12:58:01;;;;;;;;;;;17.60;99.90;;;;;;5153214;27;19919;-82
2021/06/22 13:00:37;;;;;;;;;;;17.60;99.90;;;;;;5144735;27;20297;-84
2021/06/22 13:03:10;;;;;;;;;;;17.70;99.90;;;;;;5151017;27;19956;-83
2021/06/22 13:05:36;;;;;;;;;;;17.70;99.90;;;;;;5149052;27;19925;-83
2021/06/22 13:08:02;;;;;;;;;;;17.70;99.90;;;;;;5170582;27;19910;-82
2021/06/22 13:10:28;;;;;;;;;;;17.70;99.90;;;;;;5172237;27;19919;-82
2021/06/22 13:12:53;;;;;;;;;;;17.70;99.90;;;;;;5141307;27;20005;-83
2021/06/22 13:15:30;;;;;;;;;;;17.80;99.90;;;;;;5153744;27;20405;-83
2021/06/22 13:17:55;;;;;;;;;;;17.70;99.90;;;;;;5149825;27;19922;-82
2021/06/22 13:20:23;;;;;;;;;;;17.70;99.90;;;;;;5151009;27;19915;-82
2021/06/22 13:22:48;;;;;;;;;;;17.60;99.90;;;;;;5131836;27;19910;-82
2021/06/22 13:25:16;;;;;;;;;;;17.50;99.90;;;;;;5171945;27;19918;-82
2021/06/22 13:27:47;;;;;;;;;;;17.40;99.90;;;;;;5149539;27;19919;-82
2021/06/22 13:30:29;;;;;;;;;;;17.30;99.90;;;;;;5145000;27;19915;-82
2021/06/22 13:32:56;;;;;;;;;;;17.20;99.90;;;;;;5168355;27;19921;-82
2021/06/22 13:35:36;;;;;;;;;;;17.20;99.90;;;;;;5149936;27;19915;-83
2021/06/22 13:38:01;;;;;;;;;;;17.30;99.90;;;;;;5131913;27;20355;-84
2021/06/22 13:40:29;;;;;;;;;;;17.30;99.90;;;;;;5135469;27;20014;-82
2021/06/22 13:43:07;;;;;;;;;;;17.40;99.90;;;;;;5149843;27;20001;-84
2021/06/22 13:45:42;;;;;;;;;;;17.50;99.90;;;;;;5151452;27;19925;-84
2021/06/22 13:48:16;;;;;;;;;;;17.50;99.90;;;;;;5152291;27;20296;-83
2021/06/22 13:50:42;;;;;;;;;;;17.60;99.90;;;;;;5147211;27;19915;-84
2021/06/22 13:53:16;;;;;;;;;;;17.60;99.90;;;;;;5152789;27;19926;-83
2021/06/22 13:55:42;;;;;;;;;;;17.70;99.90;;;;;;5165624;27;19979;-83